createdAt,value
2018-11-23T00:01:32.910Z,78.54
2018-11-23T00:04:02.217Z,77.86
2018-11-23T00:06:31.611Z,78.49
2018-11-23T00:09:00.933Z,78.97
2018-11-23T00:11:30.321Z,78.95
2018-11-23T00:13:59.684Z,78.70
2018-11-23T00:16:29.069Z,78.08
2018-11-23T00:18:58.330Z,79.20
2018-11-23T00:21:27.615Z,78.22
2018-11-23T00:23:57.693Z,78.32
2018-11-23T00:26:26.985Z,76.81
2018-11-23T00:28:56.359Z,76.79
2018-11-23T00:31:25.695Z,76.36
2018-11-23T00:33:55.000Z,76.85
2018-11-23T00:36:24.306Z,77.71
2018-11-23T00:38:53.668Z,79.43
2018-11-23T00:41:23.115Z,79.66
2018-11-23T00:43:52.502Z,78.95
2018-11-23T00:46:21.857Z,79.30
2018-11-23T00:48:51.220Z,79.09
2018-11-23T00:51:20.474Z,79.32
2018-11-23T00:53:49.772Z,77.51
2018-11-23T00:56:19.055Z,77.79
2018-11-23T00:58:48.360Z,77.16
2018-11-23T01:01:17.709Z,77.10
2018-11-23T01:03:46.989Z,78.90
2018-11-23T01:06:16.300Z,79.26
2018-11-23T01:08:45.889Z,79.60
2018-11-23T01:11:15.187Z,80.52
2018-11-23T01:13:44.463Z,79.40
2018-11-23T01:16:13.764Z,80.73
2018-11-23T01:18:43.011Z,80.53
2018-11-23T01:21:12.267Z,80.31
2018-11-23T01:23:41.562Z,80.13
2018-11-23T01:26:10.955Z,80.13
2018-11-23T01:28:40.261Z,80.33
2018-11-23T01:31:09.935Z,79.08
2018-11-23T01:33:39.225Z,80.51
2018-11-23T01:36:08.528Z,81.30
2018-11-23T01:38:38.008Z,79.33
2018-11-23T01:41:07.266Z,80.14
2018-11-23T01:43:36.562Z,79.60
2018-11-23T01:46:05.909Z,80.58
2018-11-23T01:48:35.215Z,82.37
2018-11-23T01:51:04.477Z,81.65
2018-11-23T01:53:34.456Z,80.40
2018-11-23T01:56:03.757Z,80.65
2018-11-23T01:58:33.160Z,79.07
2018-11-23T02:01:02.520Z,78.93
2018-11-23T02:03:31.791Z,80.19
2018-11-23T02:06:01.106Z,80.24
2018-11-23T02:08:30.527Z,80.44
2018-11-23T02:10:59.794Z,81.32
2018-11-23T02:13:29.044Z,82.44
2018-11-23T02:15:58.768Z,81.44
2018-11-23T02:18:28.099Z,81.46
2018-11-23T02:20:57.442Z,82.02
2018-11-23T02:23:26.779Z,81.36
2018-11-23T02:25:56.222Z,80.82
2018-11-23T02:28:25.508Z,80.79
2018-11-23T02:30:54.832Z,79.88
2018-11-23T02:33:24.115Z,80.71
2018-11-23T02:35:53.448Z,79.48
2018-11-23T02:38:23.010Z,80.63
2018-11-23T02:40:52.347Z,79.69
2018-11-23T02:43:21.626Z,79.46
2018-11-23T02:45:50.978Z,80.22
2018-11-23T02:48:20.431Z,80.15
2018-11-23T02:50:49.853Z,79.50
2018-11-23T02:53:19.241Z,80.43
2018-11-23T02:55:48.544Z,80.13
2018-11-23T02:58:17.851Z,79.66
2018-11-23T03:00:47.259Z,80.63
2018-11-23T03:03:16.557Z,80.56
2018-11-23T03:05:45.840Z,82.04
2018-11-23T03:08:15.123Z,81.84
2018-11-23T03:10:44.571Z,80.78
2018-11-23T03:13:13.843Z,81.45
2018-11-23T03:15:43.440Z,79.72
2018-11-23T03:18:12.735Z,81.26
2018-11-23T03:20:41.995Z,83.12
2018-11-23T03:23:11.743Z,81.89
2018-11-23T03:25:41.039Z,81.42
2018-11-23T03:28:10.392Z,81.64
2018-11-23T03:30:39.700Z,82.27
2018-11-23T03:33:08.956Z,81.57
2018-11-23T03:35:38.239Z,80.76
2018-11-23T03:38:07.567Z,80.40
2018-11-23T03:40:36.817Z,81.07
2018-11-23T03:43:06.073Z,81.92
2018-11-23T03:45:35.492Z,82.58
2018-11-23T03:48:11.408Z,82.50
2018-11-23T03:50:40.769Z,81.27
2018-11-23T03:53:10.159Z,81.23
2018-11-23T03:55:39.423Z,81.00
2018-11-23T03:58:08.760Z,81.83
2018-11-23T04:00:38.097Z,81.73
2018-11-23T04:03:07.376Z,81.39
2018-11-23T04:05:37.034Z,81.49
2018-11-23T04:08:06.337Z,81.20
2018-11-23T04:10:35.605Z,79.50
2018-11-23T04:13:04.840Z,79.57
2018-11-23T04:15:34.278Z,79.00
2018-11-23T04:18:03.525Z,80.17
2018-11-23T04:20:32.928Z,80.63
2018-11-23T04:23:02.210Z,81.62
2018-11-23T04:25:31.530Z,81.11
2018-11-23T04:28:01.183Z,82.24
2018-11-23T04:30:30.439Z,80.88
2018-11-23T04:32:59.734Z,81.29
2018-11-23T04:35:29.132Z,81.41
2018-11-23T04:37:58.521Z,80.70
2018-11-23T04:40:34.438Z,81.06
2018-11-23T04:43:03.685Z,81.63
2018-11-23T04:45:32.931Z,81.57
2018-11-23T04:48:02.792Z,82.75
2018-11-23T04:50:32.088Z,82.58
2018-11-23T04:53:01.596Z,82.14
2018-11-23T04:55:30.909Z,82.88
2018-11-23T04:58:00.191Z,82.99
2018-11-23T05:00:29.512Z,82.55
2018-11-23T05:02:58.819Z,81.74
2018-11-23T05:05:28.090Z,82.27
2018-11-23T05:07:57.430Z,84.24
2018-11-23T05:10:26.929Z,83.14
2018-11-23T05:12:56.753Z,82.43
2018-11-23T05:15:26.075Z,83.19
2018-11-23T05:17:55.423Z,82.50
2018-11-23T05:20:24.736Z,84.04
2018-11-23T05:22:54.016Z,83.12
2018-11-23T05:25:23.386Z,82.79
2018-11-23T05:27:52.658Z,83.14
2018-11-23T05:30:22.424Z,81.95
2018-11-23T05:32:52.190Z,82.06
2018-11-23T05:35:21.671Z,81.95
2018-11-23T05:37:51.079Z,82.21
2018-11-23T05:40:21.356Z,81.55
2018-11-23T05:42:50.600Z,82.04
2018-11-23T05:45:21.270Z,82.58
2018-11-23T05:47:50.896Z,82.68
2018-11-23T05:50:22.011Z,83.85
2018-11-23T05:52:51.916Z,85.20
2018-11-23T05:55:21.520Z,84.07
2018-11-23T05:57:51.058Z,83.79
2018-11-23T06:00:22.121Z,83.41
2018-11-23T06:02:51.711Z,81.91
2018-11-23T06:05:21.162Z,82.97
2018-11-23T06:07:50.551Z,81.90
2018-11-23T06:10:20.726Z,80.79
2018-11-23T06:12:49.978Z,80.83
2018-11-23T06:15:20.910Z,80.88
2018-11-23T06:17:50.856Z,81.25
2018-11-23T06:20:22.187Z,80.11
2018-11-23T06:22:52.440Z,80.43
2018-11-23T06:25:39.494Z,79.78
2018-11-23T06:28:08.767Z,80.94
2018-11-23T06:30:38.036Z,80.58
2018-11-23T06:33:24.517Z,80.17
2018-11-23T06:35:53.778Z,81.86
2018-11-23T06:38:23.068Z,80.21
2018-11-23T06:40:52.480Z,80.44
2018-11-23T06:43:21.818Z,81.01
2018-11-23T06:45:51.155Z,80.39
2018-11-23T06:48:20.421Z,81.37
2018-11-23T06:50:49.653Z,82.47
2018-11-23T06:53:18.910Z,81.86
2018-11-23T06:55:48.393Z,83.08
2018-11-23T06:58:17.700Z,82.44
2018-11-23T07:00:47.176Z,82.46
2018-11-23T07:03:16.647Z,81.87
2018-11-23T07:05:45.957Z,82.51
2018-11-23T07:08:15.459Z,81.15
2018-11-23T07:10:44.817Z,82.01
2018-11-23T07:13:14.303Z,81.88
2018-11-23T07:15:43.636Z,81.74
2018-11-23T07:18:13.075Z,80.62
2018-11-23T07:20:42.608Z,81.91
2018-11-23T07:23:11.924Z,83.17
2018-11-23T07:25:41.423Z,82.48
2018-11-23T07:28:15.496Z,82.06
2018-11-23T07:30:40.241Z,82.23
2018-11-23T07:33:09.580Z,82.59
2018-11-23T07:35:38.992Z,81.48
2018-11-23T07:38:08.281Z,80.97
2018-11-23T07:40:55.578Z,82.55
2018-11-23T07:43:24.856Z,82.22
2018-11-23T07:45:54.145Z,81.35
2018-11-23T07:48:23.453Z,81.40
2018-11-23T07:50:52.730Z,79.75
2018-11-23T07:53:22.039Z,80.89
2018-11-23T07:55:52.304Z,80.59
2018-11-23T07:58:21.763Z,81.00
2018-11-23T08:00:51.439Z,80.11
2018-11-23T08:03:20.869Z,81.11
2018-11-23T08:05:50.178Z,79.82
2018-11-23T08:08:19.451Z,79.92
2018-11-23T08:10:47.928Z,77.71
2018-11-23T08:13:17.305Z,78.68
2018-11-23T08:15:46.606Z,78.54
2018-11-23T08:18:16.016Z,80.37
2018-11-23T08:20:45.303Z,80.58
2018-11-23T08:23:14.601Z,80.62
2018-11-23T08:25:44.131Z,80.97
2018-11-23T08:28:13.438Z,81.26
2018-11-23T08:30:42.706Z,80.51
2018-11-23T08:33:12.203Z,79.47
2018-11-23T08:35:41.479Z,79.47
2018-11-23T08:38:10.995Z,77.85
2018-11-23T08:40:40.295Z,79.47
2018-11-23T08:43:09.640Z,80.52
2018-11-23T08:45:39.075Z,82.31
2018-11-23T08:48:08.971Z,83.21
2018-11-23T08:50:38.326Z,82.57
2018-11-23T08:53:07.599Z,81.22
2018-11-23T08:55:36.964Z,81.36
2018-11-23T08:58:06.436Z,82.04
2018-11-23T09:00:35.736Z,79.69
2018-11-23T09:03:05.121Z,80.06
2018-11-23T09:05:34.536Z,80.08
2018-11-23T09:08:03.815Z,79.16
2018-11-23T09:10:33.508Z,78.54
2018-11-23T09:13:04.441Z,78.19
2018-11-23T09:15:33.900Z,80.11
2018-11-23T09:18:03.181Z,79.77
2018-11-23T09:20:32.503Z,79.93
2018-11-23T09:23:01.909Z,80.60
2018-11-23T09:25:31.180Z,81.44
2018-11-23T09:28:00.455Z,80.96
2018-11-23T09:30:30.032Z,81.00
2018-11-23T09:32:59.384Z,80.09
2018-11-23T09:35:29.241Z,79.49
2018-11-23T09:37:58.722Z,81.21
2018-11-23T09:40:29.535Z,81.31
2018-11-23T09:42:58.856Z,81.50
2018-11-23T09:45:32.321Z,81.18
2018-11-23T09:48:02.840Z,81.44
2018-11-23T09:50:32.168Z,80.82
2018-11-23T09:53:03.128Z,80.29
2018-11-23T09:55:33.828Z,78.04
2018-11-23T09:58:03.121Z,77.78
2018-11-23T10:00:34.864Z,78.22
2018-11-23T10:03:04.012Z,78.68
2018-11-23T10:08:04.896Z,77.09
2018-11-23T10:10:34.351Z,76.07
2018-11-23T10:13:03.862Z,75.87
2018-11-23T10:15:33.864Z,77.65
2018-11-23T10:18:03.462Z,76.40
2018-11-23T10:20:34.048Z,77.29
2018-11-23T10:23:03.907Z,78.26
2018-11-23T10:25:34.546Z,77.67
2018-11-23T10:28:03.824Z,77.80
2018-11-23T10:30:34.632Z,76.84
2018-11-23T10:33:05.312Z,77.47
2018-11-23T10:35:34.975Z,78.55
2018-11-23T10:38:05.215Z,78.28
2018-11-23T10:40:37.423Z,77.17
2018-11-23T10:43:07.434Z,75.96
2018-11-23T10:45:37.142Z,76.30
2018-11-23T10:48:07.953Z,75.29
2018-11-23T10:50:38.729Z,75.36
2018-11-23T10:53:08.256Z,74.99
2018-11-23T10:55:38.989Z,76.25
2018-11-23T10:58:08.282Z,76.22
2018-11-23T11:00:42.873Z,75.07
2018-11-23T11:03:17.473Z,75.59
2018-11-23T11:05:52.222Z,76.42
2018-11-23T11:08:21.678Z,77.74
2018-11-23T11:10:51.466Z,78.36
2018-11-23T11:13:21.142Z,76.15
2018-11-23T11:15:50.588Z,78.37
2018-11-23T11:18:19.881Z,78.46
2018-11-23T11:20:49.229Z,77.66
2018-11-23T11:23:18.519Z,77.29
2018-11-23T11:25:47.849Z,75.97
2018-11-23T11:28:17.264Z,76.96
2018-11-23T11:30:46.638Z,79.10
2018-11-23T11:33:15.903Z,78.56
2018-11-23T11:35:45.809Z,79.49
2018-11-23T11:38:15.168Z,77.54
2018-11-23T11:40:44.454Z,76.09
2018-11-23T11:43:13.805Z,75.50
2018-11-23T11:45:43.385Z,74.89
2018-11-23T11:48:12.566Z,76.22
2018-11-23T11:50:42.030Z,76.80
2018-11-23T11:53:11.553Z,76.12
2018-11-23T11:55:40.853Z,76.54
2018-11-23T11:58:10.336Z,75.93
2018-11-23T12:00:39.597Z,76.71
2018-11-23T12:03:09.010Z,76.18
2018-11-23T12:05:44.869Z,77.30
2018-11-23T12:08:14.336Z,77.18
2018-11-23T12:10:43.630Z,75.77
2018-11-23T12:13:13.364Z,75.10
2018-11-23T12:15:42.817Z,76.26
2018-11-23T12:18:12.165Z,76.03
2018-11-23T12:20:41.500Z,74.69
2018-11-23T12:23:10.824Z,76.68
2018-11-23T12:25:40.101Z,76.48
2018-11-23T12:28:09.592Z,76.43
2018-11-23T12:30:38.903Z,75.76
2018-11-23T12:33:08.220Z,76.61
2018-11-23T12:35:38.046Z,76.08
2018-11-23T12:38:07.340Z,75.39
2018-11-23T12:40:36.656Z,74.90
2018-11-23T12:43:06.026Z,75.37
2018-11-23T12:45:35.326Z,74.78
2018-11-23T12:48:04.627Z,73.03
2018-11-23T12:50:34.080Z,74.13
2018-11-23T12:53:06.413Z,73.98
2018-11-23T12:55:32.899Z,73.66
2018-11-23T12:58:02.403Z,73.72
2018-11-23T13:00:31.733Z,74.03
2018-11-23T13:03:02.679Z,74.50
2018-11-23T13:05:33.184Z,74.82
2018-11-23T13:08:04.093Z,75.69
2018-11-23T13:10:33.551Z,75.79
2018-11-23T13:13:03.347Z,76.51
2018-11-23T13:15:32.627Z,75.83
2018-11-23T13:18:02.289Z,74.49
2018-11-23T13:20:31.628Z,74.36
2018-11-23T13:23:01.086Z,74.37
2018-11-23T13:25:31.839Z,73.64
2018-11-23T13:28:01.604Z,74.36
2018-11-23T13:30:32.238Z,74.53
2018-11-23T13:33:01.568Z,74.99
2018-11-23T13:35:31.511Z,74.84
2018-11-23T13:38:00.821Z,73.67
2018-11-23T13:40:30.730Z,75.10
2018-11-23T13:43:00.853Z,75.93
2018-11-23T13:45:32.050Z,75.60
2018-11-23T13:48:01.399Z,76.64
2018-11-23T13:50:31.072Z,77.22
2018-11-23T13:53:01.713Z,76.80
2018-11-23T13:55:31.168Z,76.08
2018-11-23T13:58:01.281Z,75.41
2018-11-23T14:00:30.675Z,75.94
2018-11-23T14:03:00.026Z,75.32
2018-11-23T14:05:31.216Z,74.54
2018-11-23T14:08:01.699Z,74.66
2018-11-23T14:10:31.553Z,76.24
2018-11-23T14:13:00.954Z,77.63
2018-11-23T14:15:31.603Z,76.05
2018-11-23T14:18:01.599Z,76.00
2018-11-23T14:20:31.495Z,75.87
2018-11-23T14:23:00.982Z,76.22
2018-11-23T14:25:31.534Z,76.14
2018-11-23T14:28:00.850Z,77.08
2018-11-23T14:30:31.701Z,75.89
2018-11-23T14:33:01.813Z,75.73
2018-11-23T14:35:32.974Z,75.86
2018-11-23T14:38:02.756Z,76.92
2018-11-23T14:40:32.121Z,76.31
2018-11-23T14:43:01.538Z,76.96
2018-11-23T14:45:32.465Z,75.44
2018-11-23T14:48:05.038Z,74.85
2018-11-23T14:50:35.851Z,74.72
2018-11-23T14:53:05.676Z,74.81
2018-11-23T14:55:35.228Z,76.44
2018-11-23T14:58:04.518Z,76.33
2018-11-23T15:00:37.142Z,76.75
2018-11-23T15:03:07.648Z,75.22
2018-11-23T15:05:37.502Z,76.34
2018-11-23T15:08:07.627Z,76.55
2018-11-23T15:10:37.444Z,76.80
2018-11-23T15:13:07.840Z,76.58
2018-11-23T15:15:38.617Z,77.00
2018-11-23T15:18:09.234Z,76.01
2018-11-23T15:20:43.073Z,76.08
2018-11-23T15:23:14.995Z,75.68
2018-11-23T15:25:45.011Z,75.11
2018-11-23T15:28:15.135Z,75.96
2018-11-23T15:30:45.710Z,77.02
2018-11-23T15:33:16.779Z,75.96
2018-11-23T15:35:46.557Z,76.62
2018-11-23T15:38:18.519Z,76.55
2018-11-23T15:40:48.595Z,76.33
2018-11-23T15:43:18.934Z,76.10
2018-11-23T15:45:48.329Z,76.59
2018-11-23T15:48:17.751Z,76.27
2018-11-23T15:50:47.104Z,77.12
2018-11-23T15:53:17.532Z,78.08
2018-11-23T15:55:46.889Z,77.84
2018-11-23T15:58:17.260Z,76.83
2018-11-23T16:00:48.610Z,78.17
2018-11-23T16:03:18.000Z,78.38
2018-11-23T16:05:47.355Z,77.02
2018-11-23T16:08:19.155Z,76.53
2018-11-23T16:10:48.805Z,76.96
2018-11-23T16:13:18.205Z,76.67
2018-11-23T16:15:47.604Z,77.25
2018-11-23T16:18:16.926Z,76.62
2018-11-23T16:20:47.141Z,77.07
2018-11-23T16:23:18.385Z,77.23
2018-11-23T16:25:48.567Z,76.41
2018-11-23T16:28:17.913Z,76.74
2018-11-23T16:30:48.774Z,77.52
2018-11-23T16:33:21.407Z,78.06
2018-11-23T16:35:50.874Z,79.52
2018-11-23T16:38:21.823Z,79.39
2018-11-23T16:40:53.052Z,77.86
2018-11-23T16:43:22.367Z,78.64
2018-11-23T16:45:51.911Z,77.67
2018-11-23T16:48:21.997Z,76.54
2018-11-23T16:50:51.441Z,77.65
2018-11-23T16:53:20.772Z,76.77
2018-11-23T16:55:50.333Z,77.27
2018-11-23T16:58:19.662Z,77.50
2018-11-23T17:00:49.467Z,77.48
2018-11-23T17:03:20.589Z,77.72
2018-11-23T17:05:51.402Z,79.28
2018-11-23T17:08:20.945Z,78.23
2018-11-23T17:10:50.302Z,77.58
2018-11-23T17:13:19.626Z,77.20
2018-11-23T17:15:48.959Z,77.72
2018-11-23T17:18:18.296Z,77.79
2018-11-23T17:20:47.570Z,76.69
2018-11-23T17:23:16.934Z,75.96
2018-11-23T17:25:46.825Z,76.25
2018-11-23T17:28:16.141Z,75.68
2018-11-23T17:30:45.463Z,75.73
2018-11-23T17:33:14.798Z,76.78
2018-11-23T17:35:44.341Z,76.34
2018-11-23T17:38:13.649Z,76.50
2018-11-23T17:40:43.431Z,76.67
2018-11-23T17:43:12.766Z,75.92
2018-11-23T17:45:42.215Z,75.77
2018-11-23T17:48:12.058Z,76.08
2018-11-23T17:50:41.370Z,75.48
2018-11-23T17:53:10.700Z,75.47
2018-11-23T17:55:40.041Z,76.18
2018-11-23T17:58:09.359Z,76.12
2018-11-23T18:00:39.649Z,76.77
2018-11-23T18:03:08.528Z,77.34
2018-11-23T18:05:37.965Z,77.29
2018-11-23T18:08:07.287Z,78.31
2018-11-23T18:10:37.056Z,78.28
2018-11-23T18:13:06.368Z,76.52
2018-11-23T18:15:36.193Z,76.57
2018-11-23T18:18:06.459Z,75.99
2018-11-23T18:20:36.138Z,74.97
2018-11-23T18:23:06.568Z,74.32
2018-11-23T18:25:38.713Z,74.50
2018-11-23T18:28:09.661Z,73.71
2018-11-23T18:30:39.224Z,74.12
2018-11-23T18:33:09.133Z,74.40
2018-11-23T18:35:38.512Z,73.98
2018-11-23T18:38:11.108Z,74.46
2018-11-23T18:40:40.817Z,74.10
2018-11-23T18:43:10.151Z,73.59
2018-11-23T18:45:39.486Z,74.41
2018-11-23T18:48:08.855Z,74.28
2018-11-23T18:50:38.216Z,74.29
2018-11-23T18:53:07.504Z,75.21
2018-11-23T18:55:37.109Z,74.25
2018-11-23T18:58:06.433Z,74.38
2018-11-23T19:00:35.835Z,73.44
2018-11-23T19:03:06.276Z,73.59
2018-11-23T19:05:35.611Z,73.05
2018-11-23T19:08:04.987Z,74.11
2018-11-23T19:10:34.475Z,74.84
2018-11-23T19:13:03.782Z,74.15
2018-11-23T19:15:33.144Z,73.69
2018-11-23T19:18:02.578Z,74.15
2018-11-23T19:20:32.010Z,74.59
2018-11-23T19:23:01.516Z,74.71
2018-11-23T19:25:30.991Z,74.70
2018-11-23T19:28:02.332Z,74.43
2018-11-23T19:30:31.736Z,74.73
2018-11-23T19:33:01.668Z,74.18
2018-11-23T19:35:30.623Z,75.24
2018-11-23T19:38:00.034Z,75.51
2018-11-23T19:40:29.412Z,76.31
2018-11-23T19:42:58.876Z,75.36
2018-11-23T19:45:28.673Z,74.53
2018-11-23T19:47:58.034Z,74.17
2018-11-23T19:50:27.360Z,73.23
2018-11-23T19:52:56.954Z,73.39
2018-11-23T19:55:26.460Z,73.58
2018-11-23T19:57:55.886Z,74.50
2018-11-23T20:00:29.696Z,74.21
2018-11-23T20:02:59.168Z,74.87
2018-11-23T20:05:28.469Z,73.82
2018-11-23T20:07:58.321Z,73.09
2018-11-23T20:10:28.064Z,73.30
2018-11-23T20:12:58.610Z,73.31
2018-11-23T20:15:28.006Z,73.67
2018-11-23T20:17:57.426Z,72.15
2018-11-23T20:20:26.751Z,72.35
2018-11-23T20:22:56.286Z,73.10
2018-11-23T20:25:25.683Z,73.34
2018-11-23T20:27:55.137Z,72.31
2018-11-23T20:30:24.481Z,73.59
2018-11-23T20:32:53.787Z,73.41
2018-11-23T20:35:23.702Z,74.87
2018-11-23T20:37:53.033Z,74.30
2018-11-23T20:40:23.396Z,73.68
2018-11-23T20:42:52.768Z,73.54
2018-11-23T20:45:22.221Z,73.30
2018-11-23T20:47:51.643Z,73.50
2018-11-23T20:50:21.066Z,75.94
2018-11-23T20:52:50.429Z,76.01
2018-11-23T20:55:21.696Z,75.61
2018-11-23T20:57:51.279Z,76.29
2018-11-23T21:00:21.625Z,76.45
2018-11-23T21:02:52.850Z,75.54
2018-11-23T21:05:22.959Z,75.17
2018-11-23T21:07:53.212Z,75.68
2018-11-23T21:10:25.004Z,75.34
2018-11-23T21:12:55.413Z,75.19
2018-11-23T21:15:28.451Z,74.60
2018-11-23T21:18:01.589Z,75.46
2018-11-23T21:20:30.027Z,76.12
2018-11-23T21:22:59.412Z,74.84
2018-11-23T21:25:28.777Z,74.30
2018-11-23T21:27:58.092Z,73.47
2018-11-23T21:30:27.408Z,74.40
2018-11-23T21:32:57.582Z,74.72
2018-11-23T21:35:27.034Z,75.32
2018-11-23T21:37:56.343Z,74.54
2018-11-23T21:40:25.841Z,75.23
2018-11-23T21:42:55.226Z,75.04
2018-11-23T21:45:24.508Z,75.20
2018-11-23T21:47:53.879Z,75.25
2018-11-23T21:50:25.589Z,75.56
2018-11-23T21:52:52.988Z,75.89
2018-11-23T21:55:25.941Z,74.31
2018-11-23T21:57:56.616Z,74.38
2018-11-23T22:00:26.260Z,73.96
2018-11-23T22:02:55.769Z,73.73
2018-11-23T22:05:25.074Z,74.08
2018-11-23T22:07:54.535Z,72.94
2018-11-23T22:10:23.853Z,72.64
2018-11-23T22:12:53.515Z,72.71
2018-11-23T22:15:25.064Z,72.96
2018-11-23T22:17:56.217Z,72.80
2018-11-23T22:20:26.828Z,73.31
2018-11-23T22:22:56.141Z,72.75
2018-11-23T22:25:25.574Z,72.82
2018-11-23T22:27:55.062Z,73.02
2018-11-23T22:30:30.212Z,72.30
2018-11-23T22:33:00.028Z,73.18
2018-11-23T22:35:30.506Z,74.17
2018-11-23T22:37:59.814Z,73.60
2018-11-23T22:40:29.726Z,73.67
2018-11-23T22:42:59.913Z,73.98
2018-11-23T22:45:29.207Z,73.77
2018-11-23T22:47:58.544Z,73.46
2018-11-23T22:50:27.914Z,73.25
2018-11-23T22:52:57.313Z,72.44
2018-11-23T22:55:26.763Z,72.70
2018-11-23T22:57:56.145Z,72.88
2018-11-23T23:00:32.954Z,72.58
2018-11-23T23:03:02.237Z,72.89
2018-11-23T23:05:31.565Z,72.19
2018-11-23T23:08:01.001Z,72.31
2018-11-23T23:10:30.642Z,71.83
2018-11-23T23:12:59.972Z,72.11
2018-11-23T23:15:29.346Z,71.25
2018-11-23T23:17:58.684Z,72.17
2018-11-23T23:20:27.944Z,71.53
2018-11-23T23:22:57.316Z,71.93
2018-11-23T23:25:26.613Z,72.25
2018-11-23T23:27:55.950Z,72.13
2018-11-23T23:30:25.313Z,72.18
2018-11-23T23:32:54.575Z,73.17
2018-11-23T23:35:23.868Z,73.33
2018-11-23T23:37:53.188Z,73.13
2018-11-23T23:40:22.716Z,73.12
2018-11-23T23:42:52.184Z,73.05
2018-11-23T23:45:21.831Z,72.68
2018-11-23T23:47:51.148Z,72.83
2018-11-23T23:50:22.617Z,73.76
2018-11-23T23:52:52.352Z,73.01
2018-11-23T23:55:21.701Z,72.74
2018-11-23T23:57:51.895Z,73.36
